Time;durP1;ratioP1;P1;durP2;ratioP2;P2;SDS_P1;SDS_P2;PMS_P1;PMS_P2;Temp;Humidity;BMP_temperature;BMP_pressure;BME280_temperature;BME280_humidity;BME280_pressure;Samples;Min_cycle;Max_cycle;Signal;HPM_P1;HPM_P2
2022/07/30 00:01:04;;;;;;;1.00;0.57;;;21.60;81.10;;;;;;4444915;32;20086;-73
2022/07/30 00:03:32;;;;;;;0.55;0.52;;;21.60;81.30;;;;;;4444453;32;20070;-75
2022/07/30 00:05:57;;;;;;;0.85;0.75;;;21.50;81.70;;;;;;4444972;32;20460;-74
2022/07/30 00:08:23;;;;;;;0.50;0.50;;;21.50;81.90;;;;;;4444946;32;20073;-74
2022/07/30 00:10:50;;;;;;;2.72;0.95;;;21.50;82.20;;;;;;4444923;32;20058;-74
2022/07/30 00:13:16;;;;;;;0.43;0.43;;;21.40;81.90;;;;;;4445565;32;20069;-74
2022/07/30 00:15:41;;;;;;;0.30;0.30;;;21.40;81.90;;;;;;4445214;32;20127;-74
2022/07/30 00:18:07;;;;;;;0.30;0.30;;;21.40;82.20;;;;;;4444797;32;20067;-73
2022/07/30 00:20:32;;;;;;;0.40;0.40;;;21.30;82.50;;;;;;4442836;32;20204;-75
2022/07/30 00:23:01;;;;;;;0.30;0.30;;;21.30;82.60;;;;;;4425777;32;20053;-75
2022/07/30 00:25:26;;;;;;;0.68;0.68;;;21.30;82.40;;;;;;4436531;32;20521;-74
2022/07/30 00:27:52;;;;;;;0.47;0.45;;;21.30;83.10;;;;;;4445069;32;20056;-75
2022/07/30 00:30:17;;;;;;;0.60;0.60;;;21.30;83.70;;;;;;4445397;32;20060;-75
2022/07/30 00:32:43;;;;;;;0.20;0.20;;;21.20;83.60;;;;;;4444970;32;20116;-74
2022/07/30 00:35:09;;;;;;;0.30;0.30;;;21.20;83.60;;;;;;4444884;32;20076;-74
2022/07/30 00:37:34;;;;;;;3.47;0.88;;;21.20;83.40;;;;;;4444416;32;20486;-75
2022/07/30 00:40:00;;;;;;;0.30;0.30;;;21.20;83.60;;;;;;4444831;32;20131;-75
2022/07/30 00:42:37;;;;;;;0.55;0.55;;;21.10;83.60;;;;;;4444347;32;20077;-75
2022/07/30 00:45:04;;;;;;;0.37;0.37;;;21.10;83.90;;;;;;4445362;32;20148;-75
2022/07/30 00:47:30;;;;;;;0.30;0.30;;;21.10;84.10;;;;;;4445338;32;20070;-74
2022/07/30 00:49:55;;;;;;;0.30;0.30;;;21.10;84.30;;;;;;4444214;32;20073;-74
2022/07/30 00:52:21;;;;;;;0.40;0.40;;;21.00;84.00;;;;;;4426180;32;20124;-75
2022/07/30 00:54:46;;;;;;;0.30;0.30;;;21.00;84.40;;;;;;4429353;32;20077;-75
2022/07/30 00:57:12;;;;;;;0.30;0.30;;;21.00;84.50;;;;;;4444643;32;20115;-75
2022/07/30 00:59:38;;;;;;;0.40;0.40;;;21.00;84.50;;;;;;4443757;32;20069;-74
2022/07/30 01:02:03;;;;;;;0.40;0.40;;;20.90;85.20;;;;;;4444873;32;20062;-74
2022/07/30 01:04:29;;;;;;;0.40;0.40;;;20.90;84.90;;;;;;4445512;32;20540;-74
2022/07/30 01:06:55;;;;;;;0.30;0.30;;;20.80;85.30;;;;;;4444338;32;20065;-74
2022/07/30 01:09:20;;;;;;;0.65;0.65;;;20.90;85.30;;;;;;4445003;32;20064;-74
2022/07/30 01:11:46;;;;;;;0.30;0.30;;;20.90;85.40;;;;;;4444765;32;20061;-74
2022/07/30 01:14:11;;;;;;;0.95;0.75;;;20.80;85.60;;;;;;4445082;32;20509;-75
2022/07/30 01:16:40;;;;;;;7.97;1.08;;;20.80;85.50;;;;;;4445184;32;20069;-75
2022/07/30 01:19:58;;;;;;;0.57;0.50;;;20.90;85.60;;;;;;4444514;32;20081;-74
2022/07/30 01:22:33;;;;;;;0.30;0.30;;;20.80;85.90;;;;;;4436317;32;20073;-75
2022/07/30 01:25:26;;;;;;;0.77;0.60;;;20.80;86.10;;;;;;4429582;32;20069;-75
2022/07/30 01:27:58;;;;;;;0.32;0.32;;;20.70;86.10;;;;;;4443965;32;20073;-75
2022/07/30 01:30:28;;;;;;;0.37;0.37;;;20.70;86.50;;;;;;4444817;32;20078;-74
2022/07/30 01:32:56;;;;;;;0.40;0.40;;;20.70;86.70;;;;;;4444108;32;20057;-75
2022/07/30 01:35:24;;;;;;;0.52;0.52;;;20.70;86.70;;;;;;4444177;32;20061;-74
2022/07/30 01:37:51;;;;;;;0.20;0.20;;;20.70;86.60;;;;;;4444919;32;20116;-74
2022/07/30 01:40:18;;;;;;;0.75;0.73;;;20.60;87.00;;;;;;4443720;32;20115;-75
2022/07/30 01:42:47;;;;;;;1.62;0.98;;;20.60;87.30;;;;;;4443776;32;20124;-74
2022/07/30 01:45:14;;;;;;;0.40;0.40;;;20.50;87.60;;;;;;4446744;32;20081;-74
2022/07/30 01:47:41;;;;;;;0.68;0.68;;;20.50;88.00;;;;;;4444887;32;20057;-74
2022/07/30 01:50:12;;;;;;;1.05;0.70;;;20.50;87.60;;;;;;4444741;32;20056;-74
2022/07/30 01:52:41;;;;;;;0.30;0.30;;;20.50;88.00;;;;;;4429210;32;20082;-75
2022/07/30 01:55:08;;;;;;;0.65;0.57;;;20.50;88.00;;;;;;4447471;32;20621;-75
2022/07/30 01:57:35;;;;;;;0.50;0.50;;;20.50;88.20;;;;;;4459669;32;20612;-75
2022/07/30 02:00:03;;;;;;;0.30;0.30;;;20.50;88.50;;;;;;4459903;32;20057;-75
2022/07/30 02:02:29;;;;;;;0.52;0.52;;;20.40;88.60;;;;;;4459272;32;20416;-75
2022/07/30 02:04:54;;;;;;;0.47;0.40;;;20.40;88.80;;;;;;4459172;32;20138;-74
2022/07/30 02:07:26;;;;;;;1.17;0.98;;;20.40;88.50;;;;;;4459883;32;20155;-74
2022/07/30 02:09:58;;;;;;;0.30;0.30;;;20.50;88.70;;;;;;4459637;32;20064;-74
2022/07/30 02:12:28;;;;;;;0.32;0.32;;;20.40;88.60;;;;;;4461129;32;20449;-75
2022/07/30 02:15:09;;;;;;;0.40;0.40;;;20.40;88.70;;;;;;4463206;32;20060;-75
2022/07/30 02:17:41;;;;;;;0.22;0.22;;;20.40;88.90;;;;;;4462794;32;20065;-75
2022/07/30 02:20:09;;;;;;;0.28;0.28;;;20.40;89.10;;;;;;4462026;32;20077;-75
2022/07/30 02:22:38;;;;;;;0.95;0.73;;;20.40;88.90;;;;;;4443531;32;20076;-75
2022/07/30 02:25:05;;;;;;;1.08;0.35;;;20.40;89.20;;;;;;4450352;32;20529;-74
2022/07/30 02:27:33;;;;;;;0.50;0.50;;;20.40;89.20;;;;;;4462331;32;20058;-75
2022/07/30 02:30:02;;;;;;;0.50;0.50;;;20.40;89.10;;;;;;4462394;32;20440;-75
2022/07/30 02:32:32;;;;;;;0.30;0.30;;;20.40;89.30;;;;;;4461677;32;20072;-74
2022/07/30 02:35:04;;;;;;;0.55;0.55;;;20.20;89.70;;;;;;4461140;32;20114;-74
2022/07/30 02:37:31;;;;;;;0.30;0.30;;;20.20;90.10;;;;;;4461949;32;20692;-74
2022/07/30 02:39:58;;;;;;;0.32;0.32;;;20.20;90.20;;;;;;4462611;32;20219;-74
2022/07/30 02:42:25;;;;;;;0.22;0.22;;;20.20;90.00;;;;;;4462732;32;20072;-74
2022/07/30 02:44:53;;;;;;;0.60;0.60;;;20.20;90.00;;;;;;4462296;32;20080;-74
2022/07/30 02:47:22;;;;;;;2.33;0.30;;;20.20;90.10;;;;;;4461950;32;20074;-74
2022/07/30 02:49:49;;;;;;;0.50;0.50;;;20.20;90.10;;;;;;4462754;32;20069;-74
2022/07/30 02:52:16;;;;;;;0.40;0.40;;;20.20;90.10;;;;;;4443482;32;20069;-74
2022/07/30 02:54:43;;;;;;;0.25;0.25;;;20.20;90.20;;;;;;4445655;32;20139;-74
2022/07/30 02:57:10;;;;;;;0.22;0.22;;;20.10;90.20;;;;;;4455473;32;20065;-74
2022/07/30 02:59:38;;;;;;;0.62;0.40;;;20.10;90.20;;;;;;4445781;32;20092;-74
2022/07/30 03:02:07;;;;;;;0.37;0.37;;;20.10;90.30;;;;;;4445757;32;20062;-74
2022/07/30 03:04:35;;;;;;;0.50;0.50;;;20.10;90.50;;;;;;4445397;32;20072;-74
2022/07/30 03:07:01;;;;;;;0.45;0.45;;;20.00;90.60;;;;;;4445833;32;20068;-74
2022/07/30 03:09:27;;;;;;;0.40;0.40;;;20.00;90.60;;;;;;4445633;32;20087;-74
2022/07/30 03:11:54;;;;;;;3.65;1.30;;;20.00;90.60;;;;;;4445965;32;20069;-74
2022/07/30 03:14:20;;;;;;;0.30;0.30;;;20.00;90.70;;;;;;4445384;32;20086;-74
2022/07/30 03:16:52;;;;;;;0.40;0.40;;;19.90;90.70;;;;;;4446683;32;20116;-74
2022/07/30 03:19:21;;;;;;;0.37;0.37;;;19.80;91.10;;;;;;4446074;32;20076;-74
2022/07/30 03:21:47;;;;;;;0.30;0.30;;;19.80;91.00;;;;;;4433369;32;20497;-74
2022/07/30 03:24:14;;;;;;;0.22;0.22;;;19.80;91.20;;;;;;4426685;32;20089;-74
2022/07/30 03:26:42;;;;;;;2.72;0.88;;;19.80;91.00;;;;;;4444049;32;20485;-74
2022/07/30 03:29:08;;;;;;;0.35;0.35;;;19.80;91.00;;;;;;4445050;32;20131;-74
2022/07/30 03:31:35;;;;;;;0.32;0.32;;;19.90;91.60;;;;;;4445591;32;20061;-74
2022/07/30 03:34:01;;;;;;;0.43;0.40;;;19.90;91.50;;;;;;4445549;32;20068;-74
2022/07/30 03:36:27;;;;;;;0.57;0.55;;;19.90;91.50;;;;;;4445695;32;20118;-74
2022/07/30 03:38:53;;;;;;;0.40;0.40;;;19.80;91.70;;;;;;4445754;32;20563;-74
2022/07/30 03:41:21;;;;;;;0.68;0.60;;;19.70;91.90;;;;;;4445520;32;20433;-74
2022/07/30 03:43:47;;;;;;;0.30;0.30;;;19.60;92.00;;;;;;4445293;32;20524;-74
2022/07/30 03:46:14;;;;;;;0.50;0.50;;;19.60;92.20;;;;;;4455456;32;20115;-74
2022/07/30 03:48:40;;;;;;;0.30;0.30;;;19.60;92.10;;;;;;4459230;32;20511;-74
2022/07/30 03:51:08;;;;;;;0.30;0.30;;;19.60;92.30;;;;;;4439113;32;20082;-75
2022/07/30 03:53:34;;;;;;;0.30;0.30;;;19.40;92.50;;;;;;4439242;32;20084;-74
2022/07/30 03:56:01;;;;;;;15.77;0.75;;;19.40;92.80;;;;;;4457040;32;20060;-74
2022/07/30 03:58:26;;;;;;;1.85;1.00;;;19.40;92.80;;;;;;4461855;32;20069;-74
2022/07/30 04:00:52;;;;;;;0.28;0.28;;;19.40;93.10;;;;;;4460854;32;20532;-74
2022/07/30 04:03:27;;;;;;;0.40;0.40;;;19.40;93.10;;;;;;4460251;32;20508;-74
2022/07/30 04:05:52;;;;;;;0.32;0.32;;;19.50;93.00;;;;;;4460672;32;20072;-74
2022/07/30 04:08:18;;;;;;;0.68;0.68;;;19.60;92.90;;;;;;4460577;32;20122;-74
2022/07/30 04:10:44;;;;;;;0.60;0.60;;;19.60;93.10;;;;;;4461644;32;20077;-74
2022/07/30 04:13:09;;;;;;;0.40;0.40;;;19.50;93.40;;;;;;4461403;32;20068;-74
2022/07/30 04:15:44;;;;;;;0.35;0.35;;;19.20;93.70;;;;;;4460667;32;20077;-74
2022/07/30 04:18:12;;;;;;;0.98;0.30;;;19.30;93.80;;;;;;4460211;32;20143;-74
2022/07/30 04:20:40;;;;;;;0.50;0.50;;;19.40;93.60;;;;;;4458671;32;20140;-74
2022/07/30 04:23:07;;;;;;;0.30;0.30;;;19.50;93.30;;;;;;4438879;32;20481;-74
2022/07/30 04:25:33;;;;;;;0.37;0.37;;;19.50;93.10;;;;;;4435627;32;20065;-74
2022/07/30 04:27:59;;;;;;;2.60;0.98;;;19.60;93.50;;;;;;4444906;32;20624;-74
2022/07/30 04:30:25;;;;;;;0.70;0.70;;;19.40;93.80;;;;;;4444888;32;20074;-74
2022/07/30 04:32:50;;;;;;;1.00;0.80;;;19.50;93.90;;;;;;4444950;32;20080;-74
2022/07/30 04:35:16;;;;;;;0.85;0.60;;;19.60;93.60;;;;;;4444066;32;20501;-74
2022/07/30 04:37:41;;;;;;;3.30;1.60;;;19.60;93.80;;;;;;4444386;32;20128;-74
2022/07/30 04:40:07;;;;;;;0.30;0.30;;;19.70;93.80;;;;;;4445979;32;20104;-74
2022/07/30 04:42:33;;;;;;;0.30;0.30;;;19.60;93.80;;;;;;4445057;32;20064;-74
2022/07/30 04:44:58;;;;;;;0.30;0.30;;;19.60;93.50;;;;;;4444562;32;20520;-74
2022/07/30 04:47:24;;;;;;;0.35;0.35;;;19.70;94.10;;;;;;4445901;32;20077;-74
2022/07/30 04:49:51;;;;;;;0.57;0.57;;;19.80;93.30;;;;;;4444651;32;20119;-74
2022/07/30 04:52:17;;;;;;;0.40;0.40;;;19.80;93.50;;;;;;4425573;32;82267;-74
2022/07/30 04:54:48;;;;;;;0.75;0.75;;;19.70;93.60;;;;;;4428369;32;20497;-74
2022/07/30 04:57:15;;;;;;;0.20;0.20;;;19.70;93.40;;;;;;4444479;32;20179;-74
2022/07/30 04:59:40;;;;;;;0.73;0.70;;;19.80;93.30;;;;;;4444816;32;20515;-74
2022/07/30 05:02:07;;;;;;;0.30;0.30;;;19.80;93.30;;;;;;4443820;32;20060;-74
2022/07/30 05:04:34;;;;;;;0.30;0.30;;;19.80;93.30;;;;;;4444180;32;20127;-74
2022/07/30 05:07:01;;;;;;;0.30;0.30;;;19.90;93.30;;;;;;4444217;32;20128;-74
2022/07/30 05:09:28;;;;;;;0.47;0.47;;;19.90;92.90;;;;;;4444741;32;20501;-74
2022/07/30 05:11:55;;;;;;;0.30;0.30;;;19.90;92.90;;;;;;4444174;32;20064;-74
2022/07/30 05:14:22;;;;;;;0.98;0.95;;;19.90;92.80;;;;;;4445287;32;20065;-74
2022/07/30 05:16:48;;;;;;;1.95;0.50;;;19.90;93.00;;;;;;4444976;32;20061;-74
2022/07/30 05:19:13;;;;;;;0.55;0.55;;;19.90;92.70;;;;;;4444451;32;20057;-74
2022/07/30 05:21:39;;;;;;;0.20;0.20;;;20.00;92.90;;;;;;4434099;32;20120;-74
2022/07/30 05:24:05;;;;;;;0.73;0.40;;;19.90;93.10;;;;;;4425842;32;20497;-74
2022/07/30 05:26:30;;;;;;;0.40;0.40;;;19.90;92.80;;;;;;4442459;32;20077;-74
2022/07/30 05:28:56;;;;;;;0.10;0.10;;;20.00;93.00;;;;;;4444194;32;20140;-74
2022/07/30 05:31:23;;;;;;;0.40;0.40;;;20.00;92.80;;;;;;4444787;32;20112;-74
2022/07/30 05:33:48;;;;;;;0.32;0.32;;;20.00;93.20;;;;;;4445031;32;20423;-74
2022/07/30 05:36:14;;;;;;;0.60;0.35;;;20.00;93.20;;;;;;4443947;32;20078;-74
2022/07/30 05:38:39;;;;;;;0.20;0.20;;;20.10;93.20;;;;;;4444604;32;20069;-74
2022/07/30 05:41:05;;;;;;;0.20;0.20;;;20.10;93.10;;;;;;4445653;32;20111;-74
2022/07/30 05:43:30;;;;;;;0.30;0.30;;;20.10;93.40;;;;;;4444138;32;20124;-74
2022/07/30 05:45:55;;;;;;;0.60;0.45;;;20.00;93.10;;;;;;4453775;32;20065;-74
2022/07/30 05:48:21;;;;;;;0.28;0.28;;;20.00;93.10;;;;;;4463088;32;20504;-73
2022/07/30 05:50:46;;;;;;;0.30;0.30;;;19.90;93.20;;;;;;4459641;32;20123;-74
2022/07/30 05:53:12;;;;;;;6.62;2.25;;;19.90;93.30;;;;;;4442726;32;20068;-73
2022/07/30 05:55:37;;;;;;;0.20;0.20;;;20.00;93.20;;;;;;4440017;32;20095;-75
2022/07/30 05:58:03;;;;;;;0.30;0.30;;;20.00;93.20;;;;;;4446717;32;20065;-74
2022/07/30 06:00:29;;;;;;;0.30;0.30;;;20.00;93.40;;;;;;4446850;32;20062;-75
2022/07/30 06:02:54;;;;;;;0.30;0.30;;;20.00;92.90;;;;;;4446515;32;20429;-75
2022/07/30 06:05:20;;;;;;;0.20;0.20;;;20.10;92.90;;;;;;4447425;32;20529;-75
2022/07/30 06:07:46;;;;;;;0.30;0.30;;;20.10;92.90;;;;;;4446505;32;20072;-74
2022/07/30 06:10:11;;;;;;;2.17;1.60;;;20.10;93.20;;;;;;4446691;32;20057;-74
2022/07/30 06:12:37;;;;;;;2.10;1.10;;;20.10;93.30;;;;;;4446778;32;20089;-74
2022/07/30 06:15:03;;;;;;;0.30;0.30;;;20.10;93.10;;;;;;4446892;32;20077;-75
2022/07/30 06:17:28;;;;;;;0.25;0.25;;;20.20;93.50;;;;;;4446498;32;20080;-75
2022/07/30 06:19:54;;;;;;;0.20;0.20;;;20.30;93.50;;;;;;4447814;32;20090;-75
2022/07/30 06:22:19;;;;;;;0.28;0.28;;;20.30;93.30;;;;;;4431137;32;20076;-74
2022/07/30 06:24:44;;;;;;;1.55;0.82;;;20.30;93.40;;;;;;4433921;32;20130;-74
2022/07/30 06:27:10;;;;;;;1.10;0.37;;;20.30;93.10;;;;;;4462687;32;20073;-74
2022/07/30 06:29:36;;;;;;;0.37;0.37;;;20.30;93.10;;;;;;4461741;32;20081;-73
2022/07/30 06:32:02;;;;;;;0.70;0.35;;;20.40;93.10;;;;;;4461515;32;20064;-73
2022/07/30 06:34:27;;;;;;;0.20;0.20;;;20.40;93.00;;;;;;4462557;32;20089;-74
2022/07/30 06:36:53;;;;;;;0.22;0.22;;;20.40;93.40;;;;;;4461534;32;20518;-74
2022/07/30 06:39:18;;;;;;;0.22;0.22;;;20.40;93.30;;;;;;4462875;32;20068;-74
2022/07/30 06:41:44;;;;;;;1.37;0.40;;;20.40;93.20;;;;;;4461503;32;20456;-73
2022/07/30 06:44:10;;;;;;;0.45;0.45;;;20.40;93.20;;;;;;4461591;32;20069;-73
2022/07/30 06:46:35;;;;;;;0.28;0.28;;;20.50;92.70;;;;;;4461499;32;20487;-74
2022/07/30 06:49:01;;;;;;;0.20;0.20;;;20.40;93.00;;;;;;4462194;32;20069;-73
2022/07/30 06:51:26;;;;;;;0.20;0.20;;;20.50;93.00;;;;;;4452300;32;20080;-74
2022/07/30 06:53:52;;;;;;;0.25;0.25;;;20.50;93.30;;;;;;4436690;32;20172;-74
2022/07/30 06:56:17;;;;;;;0.20;0.20;;;20.60;93.60;;;;;;4443191;32;20540;-74
2022/07/30 06:58:43;;;;;;;0.20;0.20;;;20.70;92.90;;;;;;4445319;32;20073;-73
2022/07/30 07:01:08;;;;;;;0.30;0.30;;;20.70;93.10;;;;;;4446558;32;20076;-74
2022/07/30 07:03:34;;;;;;;3.30;0.62;;;20.70;93.00;;;;;;4445611;32;20067;-73
2022/07/30 07:05:59;;;;;;;0.20;0.20;;;20.70;93.10;;;;;;4446202;32;20064;-74
2022/07/30 07:08:25;;;;;;;0.43;0.43;;;20.70;92.60;;;;;;4445696;32;20065;-73
2022/07/30 07:10:50;;;;;;;0.25;0.25;;;20.60;92.70;;;;;;4445921;32;20076;-73
2022/07/30 07:13:16;;;;;;;0.25;0.25;;;20.60;92.70;;;;;;4446008;32;20064;-73
2022/07/30 07:15:41;;;;;;;0.35;0.35;;;20.70;92.60;;;;;;4446873;32;20130;-73
2022/07/30 07:18:07;;;;;;;0.40;0.40;;;20.70;92.60;;;;;;4446555;32;20591;-74
2022/07/30 07:20:33;;;;;;;0.20;0.20;;;20.80;92.70;;;;;;4443869;32;20089;-73
2022/07/30 07:22:59;;;;;;;0.30;0.30;;;20.80;92.60;;;;;;4425361;32;20093;-73
2022/07/30 07:25:25;;;;;;;0.28;0.28;;;20.80;92.70;;;;;;4440971;32;20061;-74
2022/07/30 07:27:51;;;;;;;0.25;0.22;;;20.70;92.80;;;;;;4461699;32;20065;-74
2022/07/30 07:30:16;;;;;;;4.18;0.82;;;20.80;93.10;;;;;;4461666;32;20068;-74
2022/07/30 07:32:41;;;;;;;0.40;0.40;;;20.90;92.70;;;;;;4461808;32;20064;-74
2022/07/30 07:35:07;;;;;;;0.20;0.20;;;20.90;93.30;;;;;;4461795;32;20065;-74
2022/07/30 07:37:33;;;;;;;0.20;0.20;;;20.90;92.50;;;;;;4460615;32;20081;-74
2022/07/30 07:39:58;;;;;;;2.92;0.35;;;21.00;92.80;;;;;;4461687;32;20315;-74
2022/07/30 07:42:24;;;;;;;0.30;0.30;;;21.00;92.70;;;;;;4460988;32;20585;-74
2022/07/30 07:44:49;;;;;;;0.60;0.60;;;21.00;92.50;;;;;;4460538;32;20072;-75
2022/07/30 07:47:15;;;;;;;0.20;0.20;;;21.00;92.70;;;;;;4462076;32;20072;-74
2022/07/30 07:49:40;;;;;;;0.20;0.20;;;21.10;92.60;;;;;;4461135;32;20081;-74
2022/07/30 07:52:06;;;;;;;0.40;0.40;;;21.10;92.90;;;;;;4445971;32;20080;-75
2022/07/30 07:54:32;;;;;;;0.30;0.30;;;21.20;92.70;;;;;;4443014;32;20553;-75
2022/07/30 07:56:57;;;;;;;0.30;0.30;;;21.20;92.50;;;;;;4446530;32;20088;-74
2022/07/30 07:59:23;;;;;;;0.30;0.30;;;21.20;92.60;;;;;;4445592;32;20086;-74
2022/07/30 08:01:49;;;;;;;0.30;0.30;;;21.30;92.50;;;;;;4446217;32;20093;-75
2022/07/30 08:04:14;;;;;;;0.30;0.30;;;21.30;92.80;;;;;;4444623;32;20070;-74
2022/07/30 08:06:40;;;;;;;0.30;0.30;;;21.20;92.40;;;;;;4445785;32;20580;-74
2022/07/30 08:09:05;;;;;;;0.25;0.25;;;21.30;92.50;;;;;;4444786;32;20065;-74
2022/07/30 08:11:31;;;;;;;0.20;0.20;;;21.40;92.60;;;;;;4446033;32;20124;-75
2022/07/30 08:13:56;;;;;;;0.20;0.20;;;21.50;92.70;;;;;;4445603;32;20141;-74
2022/07/30 08:16:22;;;;;;;0.20;0.20;;;21.50;92.50;;;;;;4445465;32;20078;-75
2022/07/30 08:18:48;;;;;;;0.20;0.20;;;21.60;92.50;;;;;;4445096;32;20142;-74
2022/07/30 08:21:14;;;;;;;0.20;0.20;;;21.60;92.20;;;;;;4438907;32;20072;-75
2022/07/30 08:23:40;;;;;;;0.82;0.82;;;21.70;92.00;;;;;;4426775;32;20409;-75
2022/07/30 08:26:05;;;;;;;0.30;0.30;;;21.70;92.00;;;;;;4441900;32;20120;-75
2022/07/30 08:28:31;;;;;;;0.30;0.30;;;21.80;92.40;;;;;;4445316;32;20076;-74
2022/07/30 08:30:56;;;;;;;1.35;0.52;;;21.90;91.80;;;;;;4444983;32;20124;-74
2022/07/30 08:33:22;;;;;;;1.12;0.60;;;21.90;91.70;;;;;;4445105;32;20070;-74
2022/07/30 08:35:48;;;;;;;0.50;0.50;;;22.00;91.90;;;;;;4444809;32;20081;-74
2022/07/30 08:38:13;;;;;;;0.30;0.30;;;22.00;92.20;;;;;;4444795;32;20068;-74
2022/07/30 08:40:39;;;;;;;0.47;0.47;;;22.00;92.00;;;;;;4444679;32;20581;-74
2022/07/30 08:43:06;;;;;;;0.22;0.22;;;22.00;92.30;;;;;;4445037;32;20069;-74
2022/07/30 08:45:33;;;;;;;0.35;0.35;;;22.10;91.60;;;;;;4450359;32;20065;-74
2022/07/30 08:48:00;;;;;;;0.20;0.20;;;22.10;91.80;;;;;;4460568;32;20129;-74
2022/07/30 08:50:26;;;;;;;0.55;0.50;;;22.10;91.40;;;;;;4459226;32;20077;-74
2022/07/30 08:52:54;;;;;;;0.40;0.40;;;22.10;91.50;;;;;;4442815;32;20423;-74
2022/07/30 08:55:20;;;;;;;0.65;0.65;;;22.10;91.90;;;;;;4447813;32;20486;-73
2022/07/30 08:57:46;;;;;;;0.28;0.28;;;22.30;91.60;;;;;;4444758;32;20072;-73
2022/07/30 09:00:13;;;;;;;14.30;1.08;;;22.40;91.80;;;;;;4444914;32;20072;-73
2022/07/30 09:02:38;;;;;;;1.25;0.55;;;22.40;91.80;;;;;;4444676;32;20189;-74
2022/07/30 09:05:05;;;;;;;0.50;0.50;;;22.30;92.00;;;;;;4444554;32;20061;-74
2022/07/30 09:07:33;;;;;;;0.62;0.62;;;22.40;91.60;;;;;;4444600;32;20115;-73
2022/07/30 09:09:59;;;;;;;0.43;0.40;;;22.50;91.10;;;;;;4445041;32;20085;-73
2022/07/30 09:12:37;;;;;;;0.62;0.50;;;22.50;91.40;;;;;;4444634;32;20123;-74
2022/07/30 09:15:19;;;;;;;0.68;0.47;;;22.60;91.70;;;;;;4444657;32;20545;-73
2022/07/30 09:17:48;;;;;;;0.20;0.20;;;22.60;91.40;;;;;;4444339;32;20113;-73
2022/07/30 09:20:14;;;;;;;0.50;0.50;;;22.60;91.70;;;;;;4444531;32;20061;-74
2022/07/30 09:22:43;;;;;;;0.30;0.30;;;22.70;91.70;;;;;;4429075;32;20085;-74
2022/07/30 09:25:08;;;;;;;0.20;0.17;;;22.70;91.00;;;;;;4437132;32;20065;-73
2022/07/30 09:27:49;;;;;;;0.32;0.32;;;22.70;90.70;;;;;;4447413;32;20064;-74
2022/07/30 09:30:15;;;;;;;;;;;22.80;91.10;;;;;;4447808;32;20513;-73
2022/07/30 09:32:56;;;;;;;0.20;0.20;;;22.90;91.00;;;;;;4447136;32;19949;-74
2022/07/30 09:35:22;;;;;;;0.30;0.30;;;23.00;90.80;;;;;;4446811;32;20110;-73
2022/07/30 09:37:58;;;;;;;0.30;0.30;;;23.00;91.10;;;;;;4446871;32;20057;-74
2022/07/30 09:40:23;;;;;;;0.22;0.22;;;23.10;90.80;;;;;;4447171;32;20094;-74
2022/07/30 09:43:04;;;;;;;0.20;0.20;;;23.20;91.20;;;;;;4447150;32;20504;-74
2022/07/30 09:45:30;;;;;;;0.60;0.60;;;23.40;90.00;;;;;;4452993;32;20189;-74
2022/07/30 09:47:55;;;;;;;1.98;0.90;;;23.50;90.30;;;;;;4462725;32;20081;-74
2022/07/30 09:50:23;;;;;;;0.30;0.30;;;23.60;89.10;;;;;;4462290;32;20056;-74
2022/07/30 09:52:49;;;;;;;0.45;0.45;;;23.60;89.20;;;;;;4443662;32;20081;-74
2022/07/30 09:55:30;;;;;;;0.40;0.40;;;23.80;89.00;;;;;;4448837;32;20130;-74
2022/07/30 09:57:56;;;;;;;;;;;24.00;89.40;;;;;;4446486;32;20066;-74
2022/07/30 10:00:24;;;;;;;0.35;0.30;;;24.30;89.30;;;;;;4448112;32;19949;-74
2022/07/30 10:02:50;;;;;;;0.40;0.40;;;24.50;88.00;;;;;;4447363;32;20076;-73
2022/07/30 10:05:18;;;;;;;0.82;0.70;;;24.50;88.20;;;;;;4447295;32;20064;-74
2022/07/30 10:08:05;;;;;;;0.75;0.50;;;24.70;87.80;;;;;;4448204;32;20082;-74
2022/07/30 10:10:30;;;;;;;7.28;0.82;;;25.00;87.30;;;;;;4447456;32;20077;-74
2022/07/30 10:12:58;;;;;;;0.30;0.30;;;25.10;87.40;;;;;;4447422;32;20155;-73
2022/07/30 10:15:27;;;;;;;0.30;0.30;;;25.40;86.70;;;;;;4448883;32;20085;-74
2022/07/30 10:17:53;;;;;;;0.17;0.17;;;25.50;86.00;;;;;;4448494;32;20074;-74
2022/07/30 10:20:19;;;;;;;0.45;0.45;;;25.60;85.60;;;;;;4448208;32;20076;-74
2022/07/30 10:22:44;;;;;;;0.25;0.25;;;25.40;85.90;;;;;;4429891;32;20581;-74
2022/07/30 10:25:10;;;;;;;0.30;0.30;;;25.30;85.60;;;;;;4437023;32;20386;-74
2022/07/30 10:27:37;;;;;;;0.30;0.30;;;25.20;85.90;;;;;;4448698;32;20080;-74
2022/07/30 10:30:03;;;;;;;0.40;0.40;;;25.10;86.00;;;;;;4448068;32;20069;-74
2022/07/30 10:32:30;;;;;;;0.20;0.20;;;25.10;85.80;;;;;;4446113;32;20108;-74
2022/07/30 10:34:57;;;;;;;0.20;0.20;;;25.10;87.40;;;;;;4447103;32;20533;-74
2022/07/30 10:37:26;;;;;;;0.30;0.30;;;25.20;85.00;;;;;;4448467;32;20116;-74
2022/07/30 10:40:04;;;;;;;0.30;0.30;;;25.20;84.30;;;;;;4447374;32;20065;-74
2022/07/30 10:42:54;;;;;;;0.30;0.30;;;25.50;84.70;;;;;;4448587;32;20076;-73
2022/07/30 10:45:48;;;;;;;16.00;0.45;;;25.60;85.20;;;;;;4448140;32;20181;-73
2022/07/30 10:48:16;;;;;;;0.20;0.20;;;26.00;83.30;;;;;;4445477;32;20073;-73
2022/07/30 10:50:58;;;;;;;0.10;0.10;;;26.20;82.90;;;;;;4444411;32;20082;-73
2022/07/30 10:53:44;;;;;;;0.32;0.32;;;26.50;82.50;;;;;;4427033;32;20194;-73
2022/07/30 10:56:14;;;;;;;0.30;0.30;;;26.60;82.70;;;;;;4442562;32;20761;-73
2022/07/30 10:59:02;;;;;;;0.20;0.20;;;26.90;81.00;;;;;;4446744;32;20113;-75
2022/07/30 11:01:49;;;;;;;0.10;0.10;;;26.70;79.60;;;;;;4445357;32;20064;-75
2022/07/30 11:04:20;;;;;;;0.17;0.15;;;26.80;78.80;;;;;;4446322;32;20065;-74
2022/07/30 11:06:46;;;;;;;0.30;0.30;;;27.20;78.30;;;;;;4448648;32;20081;-74
2022/07/30 11:09:39;;;;;;;0.10;0.10;;;27.50;77.70;;;;;;4447031;32;20061;-74
2022/07/30 11:12:07;;;;;;;0.15;0.15;;;28.00;76.20;;;;;;4446536;32;20077;-75
2022/07/30 11:14:51;;;;;;;0.10;0.10;;;27.90;77.20;;;;;;4446859;32;20069;-74
2022/07/30 11:17:17;;;;;;;0.55;0.40;;;28.00;76.50;;;;;;4445980;32;20081;-74
2022/07/30 11:20:05;;;;;;;0.47;0.40;;;28.20;73.80;;;;;;4446876;32;20084;-74
2022/07/30 11:22:37;;;;;;;0.20;0.13;;;28.40;75.10;;;;;;4427822;32;20505;-75
2022/07/30 11:25:04;;;;;;;1.08;0.55;;;28.80;74.40;;;;;;4434623;32;20073;-74
2022/07/30 11:27:49;;;;;;;0.40;0.32;;;29.00;73.50;;;;;;4455335;32;20073;-75
2022/07/30 11:30:17;;;;;;;0.65;0.32;;;29.00;73.10;;;;;;4462346;32;20141;-74
2022/07/30 11:32:45;;;;;;;0.28;0.10;;;29.00;71.90;;;;;;4462307;32;20112;-75
2022/07/30 11:35:28;;;;;;;0.10;0.10;;;29.30;71.20;;;;;;4462041;32;20526;-74
2022/07/30 11:37:56;;;;;;;0.35;0.20;;;29.30;68.50;;;;;;4461300;32;20076;-75
2022/07/30 11:40:23;;;;;;;0.00;0.00;;;29.30;69.60;;;;;;4461243;32;20077;-75
2022/07/30 11:42:50;;;;;;;0.00;0.00;;;29.70;68.40;;;;;;4461047;32;20077;-75
2022/07/30 11:45:18;;;;;;;0.43;0.30;;;29.70;68.40;;;;;;4461687;32;20060;-73
2022/07/30 11:47:52;;;;;;;0.43;0.30;;;29.60;69.20;;;;;;4461132;32;20529;-73
2022/07/30 11:50:23;;;;;;;0.22;0.17;;;30.00;70.70;;;;;;4460993;32;20076;-73
2022/07/30 11:53:12;;;;;;;0.00;0.00;;;30.30;68.10;;;;;;4441416;32;20080;-73
2022/07/30 11:55:41;;;;;;;0.20;0.20;;;30.50;66.70;;;;;;4452588;32;20520;-73
2022/07/30 11:58:10;;;;;;;0.15;0.10;;;30.40;65.50;;;;;;4460949;32;20065;-73
2022/07/30 12:00:44;;;;;;;0.00;0.00;;;30.20;65.50;;;;;;4461046;32;20082;-73
2022/07/30 12:03:14;;;;;;;0.10;0.10;;;30.40;65.00;;;;;;4460551;32;20089;-73
2022/07/30 12:05:40;;;;;;;0.10;0.10;;;30.40;65.20;;;;;;4460723;32;20065;-73
2022/07/30 12:08:06;;;;;;;0.10;0.05;;;30.60;63.80;;;;;;4461218;32;20072;-73
2022/07/30 12:10:34;;;;;;;0.00;0.00;;;30.50;63.60;;;;;;4460842;32;20086;-73
2022/07/30 12:13:10;;;;;;;0.10;0.10;;;30.60;63.20;;;;;;4460083;32;20061;-74
2022/07/30 12:15:39;;;;;;;0.20;0.20;;;30.90;63.60;;;;;;4460555;32;20090;-73
2022/07/30 12:18:06;;;;;;;0.03;0.03;;;31.10;64.70;;;;;;4460187;32;20069;-74
2022/07/30 12:20:32;;;;;;;0.08;0.08;;;31.30;61.80;;;;;;4458859;32;20076;-73
2022/07/30 12:22:58;;;;;;;0.10;0.10;;;31.60;61.70;;;;;;4441024;32;20460;-74
2022/07/30 12:25:23;;;;;;;0.00;0.00;;;31.90;60.20;;;;;;4450609;32;20060;-74
2022/07/30 12:27:50;;;;;;;0.22;0.22;;;31.60;61.10;;;;;;4459700;32;20061;-74
2022/07/30 12:30:16;;;;;;;1.00;0.20;;;32.00;60.90;;;;;;4445074;32;20120;-74
2022/07/30 12:32:43;;;;;;;0.28;0.28;;;32.00;59.80;;;;;;4445237;32;20078;-75
2022/07/30 12:35:10;;;;;;;0.62;0.62;;;31.90;59.70;;;;;;4445718;32;20060;-74
2022/07/30 12:37:36;;;;;;;0.10;0.10;;;32.10;59.80;;;;;;4446036;32;20082;-74
2022/07/30 12:40:11;;;;;;;0.20;0.20;;;32.50;59.00;;;;;;4444899;32;20065;-73
2022/07/30 12:42:49;;;;;;;0.30;0.20;;;32.50;59.40;;;;;;4446056;32;20093;-74
2022/07/30 12:45:32;;;;;;;0.10;0.10;;;32.60;59.00;;;;;;4448428;32;20072;-74
2022/07/30 12:47:58;;;;;;;0.30;0.30;;;33.10;57.60;;;;;;4447465;32;20541;-73
2022/07/30 12:50:25;;;;;;;0.10;0.10;;;32.90;57.60;;;;;;4443231;32;20084;-74
2022/07/30 12:52:53;;;;;;;0.75;0.65;;;32.90;58.30;;;;;;4425866;32;20378;-74